createdAt,value
2022-12-18T00:00:22.317Z,-9.50
2022-12-18T00:02:24.807Z,-9.60
2022-12-18T00:04:28.043Z,-9.50
2022-12-18T00:06:30.612Z,-9.40
2022-12-18T00:08:36.508Z,-9.50
2022-12-18T00:10:38.953Z,-9.40
2022-12-18T00:12:41.405Z,-9.40
2022-12-18T00:14:43.953Z,-9.30
2022-12-18T00:16:46.833Z,-9.30
2022-12-18T00:18:49.606Z,-9.10
2022-12-18T00:20:52.106Z,-9.10
2022-12-18T00:22:54.649Z,-9.10
2022-12-18T00:24:57.117Z,-9.10
2022-12-18T00:26:59.637Z,-9.20
2022-12-18T00:29:03.121Z,-9.30
2022-12-18T00:31:08.165Z,-9.30
2022-12-18T00:33:10.696Z,-9.40
2022-12-18T00:35:13.523Z,-9.30
2022-12-18T00:37:20.047Z,-9.30
2022-12-18T00:39:20.402Z,-9.30
2022-12-18T00:41:42.578Z,-9.40
2022-12-18T00:43:45.024Z,-9.40
2022-12-18T00:45:47.630Z,-9.40
2022-12-18T00:47:50.252Z,-9.50
2022-12-18T00:49:52.832Z,-9.50
2022-12-18T00:51:57.151Z,-9.40
2022-12-18T00:53:59.747Z,-9.40
2022-12-18T00:56:02.340Z,-9.30
2022-12-18T00:58:04.936Z,-9.40
2022-12-18T01:00:09.824Z,-9.40
2022-12-18T01:02:12.477Z,-9.30
2022-12-18T01:04:15.582Z,-9.30
2022-12-18T01:06:20.320Z,-9.30
2022-12-18T01:08:23.452Z,-9.30
2022-12-18T01:10:26.213Z,-9.30
2022-12-18T01:12:28.833Z,-9.40
2022-12-18T01:14:31.708Z,-9.50
2022-12-18T01:16:35.429Z,-9.50
2022-12-18T01:18:40.926Z,-9.50
2022-12-18T01:20:43.801Z,-9.60
2022-12-18T01:22:46.312Z,-9.60
2022-12-18T01:24:48.908Z,-9.70
2022-12-18T01:26:51.372Z,-9.60
2022-12-18T01:28:54.758Z,-9.60
2022-12-18T01:31:00.970Z,-9.60
2022-12-18T01:33:04.800Z,-9.60
2022-12-18T01:35:08.644Z,-9.60
2022-12-18T01:37:11.332Z,-9.60
2022-12-18T01:39:15.106Z,-9.70
2022-12-18T01:41:19.701Z,-9.70
2022-12-18T01:43:22.284Z,-9.70
2022-12-18T01:45:26.646Z,-9.70
2022-12-18T01:47:32.216Z,-9.60
2022-12-18T01:49:34.941Z,-9.60
2022-12-18T01:51:38.028Z,-9.00
2022-12-18T01:53:42.342Z,-9.80
2022-12-18T01:55:47.512Z,-9.60
2022-12-18T01:57:50.974Z,-9.80
2022-12-18T01:59:54.861Z,-9.70
2022-12-18T02:01:57.752Z,-9.60
2022-12-18T02:04:17.230Z,-9.70
2022-12-18T02:06:22.979Z,-9.60
2022-12-18T02:08:28.728Z,-9.60
2022-12-18T02:10:33.189Z,-7.70
2022-12-18T02:12:38.531Z,-9.70
2022-12-18T02:14:44.136Z,-9.70
2022-12-18T02:16:48.716Z,-9.80
2022-12-18T02:18:53.382Z,-9.80
2022-12-18T02:20:57.900Z,-9.80
2022-12-18T02:23:05.291Z,-9.90
2022-12-18T02:25:12.264Z,-10.00
2022-12-18T02:27:15.403Z,-10.00
2022-12-18T02:29:19.991Z,-10.00
2022-12-18T02:31:24.803Z,-10.00
2022-12-18T02:33:28.364Z,-10.00
2022-12-18T02:35:32.671Z,-10.10
2022-12-18T02:37:36.412Z,-10.10
2022-12-18T02:39:41.335Z,-10.20
2022-12-18T02:41:46.037Z,-10.10
2022-12-18T02:43:51.104Z,-10.20
2022-12-18T02:45:55.170Z,-10.20
2022-12-18T02:47:58.095Z,-10.10
2022-12-18T02:50:03.643Z,-10.20
2022-12-18T02:52:11.287Z,-10.20
2022-12-18T02:54:17.594Z,-10.20
2022-12-18T02:56:22.080Z,-10.20
2022-12-18T02:58:28.516Z,-10.10
2022-12-18T03:00:35.048Z,-10.30
2022-12-18T03:02:41.119Z,-10.30
2022-12-18T03:04:46.058Z,-10.30
2022-12-18T03:06:50.342Z,-10.40
2022-12-18T03:08:55.100Z,-10.40
2022-12-18T03:11:01.336Z,-10.30
2022-12-18T03:13:06.675Z,-10.40
2022-12-18T03:15:17.296Z,-10.50
2022-12-18T03:17:20.220Z,-9.40
2022-12-18T03:19:24.943Z,-10.60
2022-12-18T03:21:29.873Z,-10.40
2022-12-18T03:23:36.169Z,-10.20
2022-12-18T03:25:40.797Z,-10.10
2022-12-18T03:27:45.891Z,-10.10
2022-12-18T03:29:50.080Z,-10.10
2022-12-18T03:31:56.599Z,-10.10
2022-12-18T03:34:01.295Z,-10.10
2022-12-18T03:36:06.314Z,-10.10
2022-12-18T03:38:10.132Z,-10.20
2022-12-18T03:40:13.512Z,-10.20
2022-12-18T03:42:17.739Z,-10.20
2022-12-18T03:44:24.308Z,-10.20
2022-12-18T03:46:29.468Z,-10.30
2022-12-18T03:48:35.806Z,-10.50
2022-12-18T03:50:42.203Z,-10.60
2022-12-18T03:52:46.572Z,-10.60
2022-12-18T03:54:49.466Z,-10.40
2022-12-18T03:56:54.609Z,-10.30
2022-12-18T03:58:58.896Z,-10.20
2022-12-18T04:01:04.199Z,-10.30
2022-12-18T04:03:09.015Z,-10.30
2022-12-18T04:05:14.343Z,-10.40
2022-12-18T04:07:17.111Z,-10.50
2022-12-18T04:09:21.252Z,-10.50
2022-12-18T04:11:24.048Z,-10.50
2022-12-18T04:13:28.420Z,-10.40
2022-12-18T04:15:32.915Z,-10.40
2022-12-18T04:17:35.536Z,-10.30
2022-12-18T04:19:38.415Z,-10.40
2022-12-18T04:21:41.302Z,-10.40
2022-12-18T04:23:45.746Z,-10.30
2022-12-18T04:25:48.788Z,-10.30
2022-12-18T04:27:53.242Z,-10.20
2022-12-18T04:29:56.082Z,-10.30
2022-12-18T04:31:58.604Z,-10.30
2022-12-18T04:34:02.270Z,-10.30
2022-12-18T04:36:05.781Z,-10.30
2022-12-18T04:38:09.125Z,-10.30
2022-12-18T04:40:13.176Z,-10.30
2022-12-18T04:42:17.560Z,-10.30
2022-12-18T04:44:20.057Z,-10.30
2022-12-18T04:46:22.598Z,-10.20
2022-12-18T04:48:25.061Z,-10.20
2022-12-18T04:50:27.978Z,-10.40
2022-12-18T04:52:30.572Z,-10.30
2022-12-18T04:54:33.073Z,-10.30
2022-12-18T04:56:35.634Z,-10.30
2022-12-18T04:58:38.179Z,-10.30
2022-12-18T05:00:40.665Z,-10.30
2022-12-18T05:02:43.394Z,-10.20
2022-12-18T05:04:46.147Z,-10.20
2022-12-18T05:06:48.813Z,-10.30
2022-12-18T05:08:51.351Z,-10.40
2022-12-18T05:10:59.837Z,-10.30
2022-12-18T05:13:02.465Z,-10.30
2022-12-18T05:15:06.428Z,-10.30
2022-12-18T05:17:09.030Z,-10.30
2022-12-18T05:19:11.629Z,-10.40
2022-12-18T05:21:14.521Z,-10.30
2022-12-18T05:23:17.127Z,-10.20
2022-12-18T05:25:19.710Z,-10.20
2022-12-18T05:27:23.404Z,-10.20
2022-12-18T05:29:26.132Z,-10.20
2022-12-18T05:31:28.687Z,-10.20
2022-12-18T05:33:32.303Z,-10.20
2022-12-18T05:35:34.844Z,-10.20
2022-12-18T05:37:42.691Z,-10.20
2022-12-18T05:39:42.039Z,-10.30
2022-12-18T05:41:44.549Z,-10.30
2022-12-18T05:43:47.626Z,-10.30
2022-12-18T05:45:50.428Z,-10.30
2022-12-18T05:47:52.936Z,-10.30
2022-12-18T05:49:56.077Z,-10.40
2022-12-18T05:51:58.558Z,-10.40
2022-12-18T05:54:01.090Z,-10.50
2022-12-18T05:56:04.291Z,-10.50
2022-12-18T05:58:07.721Z,-10.50
2022-12-18T06:00:12.002Z,-10.50
2022-12-18T06:02:15.701Z,-10.50
2022-12-18T06:04:18.532Z,-10.60
2022-12-18T06:06:22.796Z,-10.60
2022-12-18T06:08:25.412Z,-10.60
2022-12-18T06:10:27.936Z,-10.60
2022-12-18T06:12:30.454Z,-10.60
2022-12-18T06:14:32.975Z,-10.60
2022-12-18T06:16:35.557Z,-10.60
2022-12-18T06:18:38.089Z,-10.60
2022-12-18T06:20:41.984Z,-10.60
2022-12-18T06:22:44.512Z,-10.50
2022-12-18T06:24:47.105Z,-10.50
2022-12-18T06:26:49.916Z,-10.50
2022-12-18T06:28:52.535Z,-10.40
2022-12-18T06:30:55.077Z,-10.40
2022-12-18T06:32:57.587Z,-10.40
2022-12-18T06:35:00.035Z,-10.40
2022-12-18T06:37:02.609Z,-10.40
2022-12-18T06:39:05.571Z,-10.40
2022-12-18T06:41:09.402Z,-10.30
2022-12-18T06:43:11.912Z,-10.40
2022-12-18T06:45:17.164Z,-10.30
2022-12-18T06:47:19.641Z,-10.20
2022-12-18T06:49:25.045Z,-10.20
2022-12-18T06:51:26.551Z,-10.10
2022-12-18T06:53:29.545Z,-10.10
2022-12-18T06:55:31.984Z,-10.20
2022-12-18T06:57:34.490Z,-10.10
2022-12-18T06:59:36.995Z,-10.20
2022-12-18T07:01:39.600Z,-10.20
2022-12-18T07:03:43.869Z,-10.20
2022-12-18T07:05:47.013Z,-10.10
2022-12-18T07:07:49.508Z,-10.10
2022-12-18T07:09:52.114Z,-10.10
2022-12-18T07:11:54.626Z,-10.10
2022-12-18T07:13:57.080Z,-10.10
2022-12-18T07:16:05.072Z,-10.10
2022-12-18T07:18:08.551Z,-10.00
2022-12-18T07:20:11.750Z,-10.00
2022-12-18T07:22:14.227Z,-10.00
2022-12-18T07:24:16.818Z,-9.90
2022-12-18T07:26:21.002Z,-9.90
2022-12-18T07:28:24.958Z,-9.90
2022-12-18T07:30:30.104Z,-9.90
2022-12-18T07:32:35.247Z,-9.90
2022-12-18T07:34:39.068Z,-9.90
2022-12-18T07:36:43.059Z,-9.80
2022-12-18T07:38:48.331Z,-9.80
2022-12-18T07:40:52.940Z,-9.70
2022-12-18T07:42:56.499Z,-9.70
2022-12-18T07:45:00.303Z,-9.70
2022-12-18T07:47:09.134Z,-9.70
2022-12-18T07:49:11.024Z,-9.60
2022-12-18T07:51:14.978Z,-9.50
2022-12-18T07:53:18.318Z,-9.50
2022-12-18T07:55:21.676Z,-9.40
2022-12-18T07:57:49.427Z,-9.40
2022-12-18T07:59:29.613Z,-9.40
2022-12-18T08:01:32.698Z,-9.30
2022-12-18T08:03:37.633Z,-9.30
2022-12-18T08:05:40.809Z,-9.30
2022-12-18T08:07:45.153Z,-9.20
2022-12-18T08:09:49.301Z,-9.10
2022-12-18T08:11:52.120Z,-8.90
2022-12-18T08:13:56.002Z,-8.80
2022-12-18T08:16:00.412Z,-8.70
2022-12-18T08:18:04.732Z,-8.60
2022-12-18T08:20:10.179Z,-8.50
2022-12-18T08:22:12.922Z,-8.50
2022-12-18T08:24:16.923Z,-8.40
2022-12-18T08:26:21.082Z,-8.30
2022-12-18T08:28:24.608Z,-8.00
2022-12-18T08:30:28.195Z,-7.70
2022-12-18T08:32:33.620Z,-7.50
2022-12-18T08:34:36.399Z,-7.30
2022-12-18T08:36:39.843Z,-7.10
2022-12-18T08:38:42.661Z,-6.90
2022-12-18T08:40:46.200Z,-6.80
2022-12-18T08:43:07.751Z,-6.60
2022-12-18T08:45:12.159Z,-6.50
2022-12-18T08:47:14.905Z,-6.30
2022-12-18T08:49:18.366Z,-6.20
2022-12-18T08:51:21.820Z,-6.20
2022-12-18T08:53:36.593Z,-6.00
2022-12-18T08:55:40.231Z,-5.90
2022-12-18T08:57:45.036Z,-5.80
2022-12-18T08:59:50.682Z,-5.70
2022-12-18T09:01:55.606Z,-5.70
2022-12-18T09:04:08.893Z,-5.60
2022-12-18T09:06:14.646Z,-5.60
2022-12-18T09:08:18.504Z,-5.50
2022-12-18T09:10:23.158Z,-5.50
2022-12-18T09:12:27.065Z,-5.50
2022-12-18T09:14:32.055Z,-5.40
2022-12-18T09:16:37.537Z,-5.40
2022-12-18T09:18:40.747Z,-5.30
2022-12-18T09:20:44.106Z,-5.30
2022-12-18T09:22:48.567Z,-5.20
2022-12-18T09:24:53.151Z,-5.10
2022-12-18T09:26:57.979Z,-5.10
2022-12-18T09:29:04.527Z,-5.10
2022-12-18T09:31:09.577Z,-4.90
2022-12-18T09:33:12.327Z,-4.90
2022-12-18T09:35:14.972Z,-4.80
2022-12-18T09:37:17.565Z,-4.80
2022-12-18T09:39:20.130Z,-4.70
2022-12-18T09:41:32.700Z,-4.60
2022-12-18T09:43:37.402Z,-4.60
2022-12-18T09:45:41.743Z,-4.40
2022-12-18T09:47:45.830Z,-4.40
2022-12-18T09:49:50.008Z,-4.30
2022-12-18T09:51:54.314Z,-4.20
2022-12-18T09:53:58.721Z,-4.20
2022-12-18T09:56:02.690Z,-4.10
2022-12-18T09:58:08.302Z,-4.00
2022-12-18T10:00:13.979Z,-4.00
2022-12-18T10:02:18.333Z,-3.90
2022-12-18T10:04:21.178Z,-3.70
2022-12-18T10:06:26.336Z,-3.60
2022-12-18T10:08:32.133Z,-3.50
2022-12-18T10:10:37.907Z,-3.30
2022-12-18T10:12:42.347Z,-3.20
2022-12-18T10:14:46.646Z,-3.00
2022-12-18T10:16:53.443Z,-2.80
2022-12-18T10:19:05.207Z,-2.70
2022-12-18T10:21:10.565Z,-2.50
2022-12-18T10:23:15.450Z,-2.40
2022-12-18T10:25:21.043Z,-2.20
2022-12-18T10:27:25.385Z,-2.20
2022-12-18T10:29:27.877Z,-2.00
2022-12-18T10:31:30.880Z,-2.00
2022-12-18T10:33:34.885Z,-1.90
2022-12-18T10:35:37.676Z,-1.90
2022-12-18T10:37:42.051Z,-1.90
2022-12-18T10:39:45.118Z,-1.80
2022-12-18T10:41:47.599Z,-1.80
2022-12-18T10:43:54.037Z,-1.70
2022-12-18T10:46:16.847Z,-1.80
2022-12-18T10:48:20.707Z,-1.80
2022-12-18T10:50:40.927Z,-1.80
2022-12-18T10:52:31.399Z,-1.80
2022-12-18T10:54:35.007Z,-1.80
2022-12-18T10:56:38.335Z,-1.80
2022-12-18T10:58:42.146Z,-1.80
2022-12-18T11:00:46.558Z,-1.80
2022-12-18T11:02:49.399Z,-1.80
2022-12-18T11:04:53.580Z,-1.80
2022-12-18T11:06:58.040Z,-1.70
2022-12-18T11:09:05.353Z,-1.70
2022-12-18T11:11:10.452Z,-1.70
2022-12-18T11:13:13.794Z,-1.70
2022-12-18T11:15:18.292Z,-1.70
2022-12-18T11:17:26.232Z,-1.60
2022-12-18T11:19:29.751Z,-1.50
2022-12-18T11:21:34.124Z,-1.50
2022-12-18T11:23:38.282Z,-1.50
2022-12-18T11:25:42.676Z,-1.50
2022-12-18T11:27:49.323Z,-1.50
2022-12-18T11:29:52.100Z,-1.50
2022-12-18T11:31:56.978Z,-1.40
2022-12-18T11:34:28.067Z,-1.40
2022-12-18T11:36:10.585Z,-1.30
2022-12-18T11:38:16.962Z,-1.30
2022-12-18T11:40:21.471Z,-1.30
2022-12-18T11:42:25.163Z,-1.30
2022-12-18T11:44:29.951Z,-1.20
2022-12-18T11:46:34.450Z,-1.10
2022-12-18T11:48:40.171Z,-1.10
2022-12-18T11:50:45.215Z,-1.00
2022-12-18T11:52:51.571Z,-1.10
2022-12-18T11:54:57.478Z,-1.10
2022-12-18T11:57:02.866Z,-1.80
2022-12-18T11:59:08.841Z,-1.20
2022-12-18T12:01:15.832Z,-1.20
2022-12-18T12:03:27.868Z,-1.20
2022-12-18T12:05:34.810Z,-1.20
2022-12-18T12:07:41.648Z,-1.10
2022-12-18T12:09:46.945Z,-1.20
2022-12-18T12:11:53.986Z,-1.10
2022-12-18T12:14:00.728Z,-1.20
2022-12-18T12:16:07.180Z,-1.20
2022-12-18T12:18:11.895Z,-1.10
2022-12-18T12:20:16.474Z,-1.10
2022-12-18T12:22:21.837Z,-1.10
2022-12-18T12:24:28.375Z,-1.10
2022-12-18T12:26:33.437Z,-1.10
2022-12-18T12:28:47.685Z,-1.10
2022-12-18T12:30:53.960Z,-1.10
2022-12-18T12:33:09.305Z,-1.10
2022-12-18T12:35:17.101Z,-1.10
2022-12-18T12:37:23.410Z,-1.00
2022-12-18T12:39:27.729Z,-1.00
2022-12-18T12:41:50.183Z,-0.90
2022-12-18T12:43:53.771Z,-0.90
2022-12-18T12:45:59.606Z,-0.80
2022-12-18T12:48:03.443Z,-0.80
2022-12-18T12:50:09.920Z,-0.80
2022-12-18T12:52:15.548Z,-0.80
2022-12-18T12:54:21.421Z,-0.80
2022-12-18T12:56:26.002Z,-0.90
2022-12-18T12:58:32.656Z,-0.90
2022-12-18T13:00:38.357Z,-0.70
2022-12-18T13:02:42.878Z,-0.70
2022-12-18T13:04:48.526Z,-0.80
2022-12-18T13:06:53.792Z,-0.80
2022-12-18T13:08:57.854Z,-0.70
2022-12-18T13:11:20.075Z,-0.80
2022-12-18T13:13:23.571Z,-0.80
2022-12-18T13:15:39.827Z,-0.90
2022-12-18T13:17:42.656Z,-0.90
2022-12-18T13:19:45.631Z,-0.90
2022-12-18T13:21:54.392Z,-0.90
2022-12-18T13:23:57.782Z,-0.90
2022-12-18T13:26:01.189Z,-0.90
2022-12-18T13:28:22.776Z,-0.80
2022-12-18T13:30:45.718Z,-0.90
2022-12-18T13:32:48.997Z,-0.80
2022-12-18T13:35:08.245Z,-0.90
2022-12-18T13:37:28.722Z,-0.80
2022-12-18T13:39:35.494Z,-0.80
2022-12-18T13:41:38.535Z,-0.80
2022-12-18T13:43:43.897Z,-0.80
2022-12-18T13:45:48.792Z,-0.80
2022-12-18T13:47:51.615Z,-0.80
2022-12-18T13:49:54.899Z,-0.80
2022-12-18T13:51:57.481Z,-0.80
2022-12-18T13:54:01.516Z,-0.80
2022-12-18T13:56:04.408Z,-0.80
2022-12-18T13:58:07.037Z,-0.80
2022-12-18T14:00:22.617Z,-0.80
2022-12-18T14:02:26.717Z,-0.80
2022-12-18T14:04:31.136Z,-0.80
2022-12-18T14:06:33.652Z,-0.80
2022-12-18T14:08:40.072Z,-0.80
2022-12-18T14:10:48.207Z,-0.80
2022-12-18T14:12:59.149Z,-0.80
2022-12-18T14:15:03.573Z,-0.80
2022-12-18T14:17:09.508Z,-0.80
2022-12-18T14:19:15.596Z,-0.80
2022-12-18T14:21:19.591Z,-0.80
2022-12-18T14:23:32.452Z,-0.80
2022-12-18T14:25:34.926Z,-0.70
2022-12-18T14:27:38.591Z,-0.80
2022-12-18T14:29:42.896Z,-0.80
2022-12-18T14:31:45.419Z,-0.70
2022-12-18T14:33:47.867Z,-0.80
2022-12-18T14:35:58.365Z,-0.70
2022-12-18T14:38:11.691Z,-0.80
2022-12-18T14:40:15.095Z,-0.70
2022-12-18T14:42:17.571Z,-0.60
2022-12-18T14:44:21.675Z,-0.70
2022-12-18T14:46:33.124Z,-0.70
2022-12-18T14:48:37.846Z,-0.70
2022-12-18T14:50:40.633Z,-0.70
2022-12-18T14:52:43.163Z,-0.70
2022-12-18T14:54:47.268Z,-0.60
2022-12-18T14:56:50.971Z,-0.60
2022-12-18T14:58:54.744Z,-0.60
2022-12-18T15:00:57.517Z,-0.60
2022-12-18T15:03:00.071Z,-0.50
2022-12-18T15:05:07.219Z,-0.50
2022-12-18T15:07:11.459Z,-0.40
2022-12-18T15:09:23.390Z,-0.40
2022-12-18T15:11:28.808Z,-0.30
2022-12-18T15:13:31.915Z,0.20
2022-12-18T15:15:48.339Z,-0.10
2022-12-18T15:17:52.632Z,0.00
2022-12-18T15:19:56.955Z,0.20
2022-12-18T15:22:05.930Z,0.40
2022-12-18T15:24:03.983Z,0.10
2022-12-18T15:26:07.751Z,0.50
2022-12-18T15:28:18.805Z,0.50
2022-12-18T15:30:22.714Z,0.70
2022-12-18T15:32:25.216Z,0.80
2022-12-18T15:34:28.143Z,0.90
2022-12-18T15:36:30.913Z,0.80
2022-12-18T15:38:33.405Z,0.80
2022-12-18T15:40:35.935Z,0.80
2022-12-18T15:42:56.585Z,0.80
2022-12-18T15:44:59.050Z,0.80
2022-12-18T15:47:01.570Z,0.80
2022-12-18T15:49:04.086Z,0.80
2022-12-18T15:51:10.458Z,0.80
2022-12-18T15:53:13.000Z,0.90
2022-12-18T15:55:36.152Z,1.00
2022-12-18T15:57:41.229Z,1.10
2022-12-18T15:59:43.773Z,1.20
2022-12-18T16:01:47.637Z,1.20
2022-12-18T16:03:50.344Z,1.20
2022-12-18T16:05:52.865Z,1.20
2022-12-18T16:07:55.355Z,1.20
2022-12-18T16:09:58.476Z,1.20
2022-12-18T16:12:02.966Z,1.30
2022-12-18T16:14:06.184Z,1.30
2022-12-18T16:16:09.317Z,1.20
2022-12-18T16:18:11.907Z,1.20
2022-12-18T16:20:15.653Z,1.20
2022-12-18T16:22:22.108Z,1.10
2022-12-18T16:24:26.018Z,1.10
2022-12-18T16:26:28.494Z,1.00
2022-12-18T16:28:31.784Z,0.90
2022-12-18T16:30:37.962Z,0.90
2022-12-18T16:32:38.873Z,0.90
2022-12-18T16:34:42.758Z,0.70
2022-12-18T16:36:45.244Z,0.70
2022-12-18T16:38:47.829Z,0.60
2022-12-18T16:41:08.220Z,0.60
2022-12-18T16:43:10.689Z,0.60
2022-12-18T16:45:14.420Z,0.60
2022-12-18T16:47:17.582Z,0.60
2022-12-18T16:49:20.482Z,0.60
2022-12-18T16:51:23.001Z,0.40
2022-12-18T16:53:25.514Z,0.40
2022-12-18T16:55:28.023Z,0.40
2022-12-18T16:57:30.541Z,0.50
2022-12-18T16:59:33.241Z,0.40
2022-12-18T17:01:36.830Z,0.40
2022-12-18T17:03:39.813Z,0.70
2022-12-18T17:05:42.657Z,0.80
2022-12-18T17:07:45.465Z,1.10
2022-12-18T17:09:49.645Z,1.30
2022-12-18T17:11:52.162Z,1.60
2022-12-18T17:13:54.718Z,1.90
2022-12-18T17:15:59.009Z,2.10
2022-12-18T17:18:01.501Z,2.10
2022-12-18T17:20:04.662Z,2.00
2022-12-18T17:22:08.166Z,2.00
2022-12-18T17:24:10.908Z,2.20
2022-12-18T17:26:13.601Z,2.10
2022-12-18T17:28:16.103Z,2.20
2022-12-18T17:30:18.791Z,2.20
2022-12-18T17:32:22.390Z,2.30
2022-12-18T17:34:24.854Z,2.30
2022-12-18T17:36:28.380Z,2.30
2022-12-18T17:38:30.874Z,2.30
2022-12-18T17:40:33.500Z,2.30
2022-12-18T17:42:36.900Z,2.30
2022-12-18T17:44:39.492Z,2.30
2022-12-18T17:46:42.959Z,2.30
2022-12-18T17:48:45.414Z,2.30
2022-12-18T17:50:48.009Z,2.30
2022-12-18T17:52:50.497Z,2.20
2022-12-18T17:54:53.269Z,2.20
2022-12-18T17:56:55.856Z,2.20
2022-12-18T17:58:59.261Z,2.40
2022-12-18T18:01:02.848Z,2.10
2022-12-18T18:03:05.448Z,2.10
2022-12-18T18:05:08.633Z,2.10
2022-12-18T18:07:12.935Z,2.00
2022-12-18T18:09:16.671Z,2.00
2022-12-18T18:11:40.065Z,2.00
2022-12-18T18:14:01.147Z,2.00
2022-12-18T18:16:04.188Z,2.00
2022-12-18T18:18:06.790Z,2.00
2022-12-18T18:20:10.547Z,1.90
2022-12-18T18:22:13.306Z,1.90
2022-12-18T18:24:16.541Z,1.90
2022-12-18T18:26:21.557Z,1.90
2022-12-18T18:28:25.538Z,1.90
2022-12-18T18:30:28.141Z,2.00
2022-12-18T18:32:30.782Z,2.00
2022-12-18T18:34:33.369Z,2.00
2022-12-18T18:36:35.910Z,2.00
2022-12-18T18:38:40.027Z,2.00
2022-12-18T18:40:43.447Z,2.00
2022-12-18T18:42:46.206Z,2.00
2022-12-18T18:44:49.226Z,1.90
2022-12-18T18:46:53.102Z,2.00
2022-12-18T18:48:57.022Z,2.00
2022-12-18T18:51:00.105Z,1.90
2022-12-18T18:53:02.740Z,2.00
2022-12-18T18:55:20.983Z,2.00
2022-12-18T18:57:20.254Z,1.90
2022-12-18T18:59:15.801Z,2.00
2022-12-18T19:01:19.340Z,1.90
2022-12-18T19:03:22.177Z,1.90
2022-12-18T19:05:28.396Z,1.90
2022-12-18T19:07:32.065Z,1.90
2022-12-18T19:09:36.537Z,1.90
2022-12-18T19:11:57.484Z,1.80
2022-12-18T19:14:01.064Z,1.80
2022-12-18T19:16:05.580Z,1.80
2022-12-18T19:18:08.177Z,1.70
2022-12-18T19:20:11.743Z,1.70
2022-12-18T19:22:16.034Z,1.70
2022-12-18T19:24:18.931Z,1.60
2022-12-18T19:26:27.928Z,1.60
2022-12-18T19:28:28.153Z,1.60
2022-12-18T19:30:30.628Z,1.50
2022-12-18T19:32:34.229Z,1.50
2022-12-18T19:34:36.762Z,1.40
2022-12-18T19:36:40.381Z,1.40
2022-12-18T19:38:44.879Z,1.40
2022-12-18T19:40:48.569Z,1.40
2022-12-18T19:42:51.444Z,1.40
2022-12-18T19:44:53.952Z,1.40
2022-12-18T19:46:56.482Z,1.30
2022-12-18T19:48:59.574Z,1.40
2022-12-18T19:51:05.986Z,1.40
2022-12-18T19:53:09.211Z,1.40
2022-12-18T19:55:12.776Z,1.50
2022-12-18T19:57:15.345Z,1.60
2022-12-18T19:59:19.197Z,1.60
2022-12-18T20:01:23.106Z,1.60
2022-12-18T20:03:32.098Z,1.60
2022-12-18T20:05:30.507Z,1.60
2022-12-18T20:07:33.056Z,1.60
2022-12-18T20:09:36.429Z,1.60
2022-12-18T20:11:41.805Z,1.50
2022-12-18T20:13:44.622Z,1.40
2022-12-18T20:15:47.307Z,1.40
2022-12-18T20:17:49.952Z,1.30
2022-12-18T20:19:52.859Z,1.40
2022-12-18T20:21:56.661Z,1.40
2022-12-18T20:23:59.556Z,1.40
2022-12-18T20:26:02.048Z,1.30
2022-12-18T20:28:04.739Z,1.40
2022-12-18T20:30:08.916Z,1.40
2022-12-18T20:32:11.506Z,1.50
2022-12-18T20:34:14.017Z,1.50
2022-12-18T20:36:22.552Z,1.50
2022-12-18T20:38:23.314Z,1.60
2022-12-18T20:40:27.309Z,1.60
2022-12-18T20:42:29.800Z,1.60
2022-12-18T20:44:32.443Z,1.60
2022-12-18T20:46:35.252Z,1.60
2022-12-18T20:48:37.760Z,1.60
2022-12-18T20:50:42.245Z,1.60
2022-12-18T20:52:47.478Z,1.60
2022-12-18T20:54:50.347Z,1.60
2022-12-18T20:56:52.940Z,1.50
2022-12-18T20:58:57.223Z,1.50
2022-12-18T21:01:03.852Z,1.50
2022-12-18T21:03:14.649Z,1.50
2022-12-18T21:05:17.617Z,1.50
2022-12-18T21:07:20.081Z,1.40
2022-12-18T21:09:22.667Z,1.40
2022-12-18T21:11:46.934Z,1.40
2022-12-18T21:13:49.477Z,1.50
2022-12-18T21:15:53.941Z,1.50
2022-12-18T21:17:56.721Z,1.50
2022-12-18T21:19:59.596Z,1.50
2022-12-18T21:22:02.876Z,1.50
2022-12-18T21:24:06.616Z,1.60
2022-12-18T21:26:19.551Z,1.70
2022-12-18T21:28:22.068Z,1.70
2022-12-18T21:30:24.883Z,1.80
2022-12-18T21:32:28.505Z,1.90
2022-12-18T21:34:32.528Z,2.00
2022-12-18T21:36:35.411Z,2.00
2022-12-18T21:38:37.930Z,2.00
2022-12-18T21:40:40.624Z,2.00
2022-12-18T21:43:01.164Z,2.00
2022-12-18T21:45:07.650Z,2.00
2022-12-18T21:47:22.999Z,1.90
2022-12-18T21:49:17.292Z,2.00
2022-12-18T21:51:19.768Z,2.00
2022-12-18T21:53:22.360Z,2.10
2022-12-18T21:55:25.050Z,2.20
2022-12-18T21:57:27.529Z,2.20
2022-12-18T21:59:32.904Z,2.20
2022-12-18T22:01:37.644Z,2.20
2022-12-18T22:03:40.150Z,2.30
2022-12-18T22:05:42.647Z,2.30
2022-12-18T22:07:45.155Z,2.30
2022-12-18T22:09:47.721Z,2.20
2022-12-18T22:11:50.625Z,2.20
2022-12-18T22:13:53.506Z,2.10
2022-12-18T22:15:56.091Z,2.10
2022-12-18T22:18:00.213Z,2.10
2022-12-18T22:20:03.343Z,2.10
2022-12-18T22:22:05.854Z,2.20
2022-12-18T22:24:10.318Z,2.20
2022-12-18T22:26:12.920Z,2.10
2022-12-18T22:28:34.969Z,2.10
2022-12-18T22:30:37.490Z,2.10
2022-12-18T22:32:39.965Z,2.10
2022-12-18T22:34:42.450Z,2.00
2022-12-18T22:36:45.852Z,2.20
2022-12-18T22:38:48.414Z,2.20
2022-12-18T22:40:50.981Z,2.10
2022-12-18T22:42:53.605Z,2.10
2022-12-18T22:44:56.395Z,2.10
2022-12-18T22:47:07.060Z,2.10
2022-12-18T22:49:03.789Z,2.10
2022-12-18T22:51:07.373Z,2.20
2022-12-18T22:53:10.130Z,2.20
2022-12-18T22:55:12.626Z,2.30
2022-12-18T22:57:15.428Z,2.30
2022-12-18T22:59:18.784Z,2.40
2022-12-18T23:01:22.564Z,2.40
2022-12-18T23:03:25.212Z,2.30
2022-12-18T23:05:28.382Z,2.30
2022-12-18T23:07:30.884Z,2.30
2022-12-18T23:09:33.601Z,2.30
2022-12-18T23:11:36.305Z,2.20
2022-12-18T23:13:39.302Z,2.20
2022-12-18T23:15:42.436Z,2.30
2022-12-18T23:17:44.989Z,2.20
2022-12-18T23:19:49.372Z,2.20
2022-12-18T23:21:52.118Z,2.20
2022-12-18T23:23:56.417Z,2.20
2022-12-18T23:26:01.075Z,2.20
2022-12-18T23:28:04.262Z,2.10
2022-12-18T23:30:08.445Z,2.00
2022-12-18T23:32:11.372Z,2.00
2022-12-18T23:34:14.769Z,2.00
2022-12-18T23:36:18.034Z,2.00
2022-12-18T23:38:20.862Z,2.10
2022-12-18T23:40:23.430Z,2.00
2022-12-18T23:42:25.924Z,2.00
2022-12-18T23:44:29.943Z,2.00
2022-12-18T23:46:33.660Z,1.90
2022-12-18T23:48:36.177Z,1.90
2022-12-18T23:50:38.685Z,1.90
2022-12-18T23:52:41.270Z,1.90
2022-12-18T23:54:43.734Z,1.90
2022-12-18T23:56:46.362Z,1.90
2022-12-18T23:58:49.539Z,1.60
